sensor_id;sensor_type;location;lat;lon;timestamp;P1;P2;P0
27143;PMS1003;14672;50.250;8.312;2023-02-15T00:01:38;42.50;37.50;15.50
27143;PMS1003;14672;50.250;8.312;2023-02-15T00:04:05;42.50;36.50;18.00
27143;PMS1003;14672;50.250;8.312;2023-02-15T00:06:32;40.00;30.50;13.50
27143;PMS1003;14672;50.250;8.312;2023-02-15T00:08:58;45.20;36.80;18.40
27143;PMS1003;14672;50.250;8.312;2023-02-15T00:11:24;44.00;39.00;20.00
27143;PMS1003;14672;50.250;8.312;2023-02-15T00:14:14;35.00;29.00;14.00
27143;PMS1003;14672;50.250;8.312;2023-02-15T00:16:46;42.50;37.00;16.50
27143;PMS1003;14672;50.250;8.312;2023-02-15T00:19:14;39.00;34.00;15.50
27143;PMS1003;14672;50.250;8.312;2023-02-15T00:21:42;32.50;31.00;16.00
27143;PMS1003;14672;50.250;8.312;2023-02-15T00:24:09;36.00;34.50;16.50
27143;PMS1003;14672;50.250;8.312;2023-02-15T00:26:38;36.00;33.00;15.50
27143;PMS1003;14672;50.250;8.312;2023-02-15T00:29:06;39.00;38.50;18.00
27143;PMS1003;14672;50.250;8.312;2023-02-15T00:31:33;31.50;29.50;14.00
27143;PMS1003;14672;50.250;8.312;2023-02-15T00:36:35;36.00;31.50;14.00
27143;PMS1003;14672;50.250;8.312;2023-02-15T00:39:02;44.00;37.50;17.00
27143;PMS1003;14672;50.250;8.312;2023-02-15T00:41:30;35.50;33.00;14.00
27143;PMS1003;14672;50.250;8.312;2023-02-15T00:43:57;41.00;33.00;16.50
27143;PMS1003;14672;50.250;8.312;2023-02-15T00:46:22;39.33;36.00;16.00
27143;PMS1003;14672;50.250;8.312;2023-02-15T00:48:48;36.00;32.67;16.00
27143;PMS1003;14672;50.250;8.312;2023-02-15T00:51:14;38.50;33.50;15.00
27143;PMS1003;14672;50.250;8.312;2023-02-15T00:53:42;35.50;33.50;18.00
27143;PMS1003;14672;50.250;8.312;2023-02-15T00:56:09;32.00;30.00;13.50
27143;PMS1003;14672;50.250;8.312;2023-02-15T00:58:36;36.00;32.00;18.50
27143;PMS1003;14672;50.250;8.312;2023-02-15T01:01:06;45.50;40.00;18.00
27143;PMS1003;14672;50.250;8.312;2023-02-15T01:03:35;37.50;35.00;18.00
27143;PMS1003;14672;50.250;8.312;2023-02-15T01:06:01;30.50;30.50;15.00
27143;PMS1003;14672;50.250;8.312;2023-02-15T01:08:28;42.00;37.00;17.50
27143;PMS1003;14672;50.250;8.312;2023-02-15T01:10:54;44.00;34.00;15.33
27143;PMS1003;14672;50.250;8.312;2023-02-15T01:13:20;37.33;32.67;16.00
27143;PMS1003;14672;50.250;8.312;2023-02-15T01:15:52;40.50;29.50;13.00
27143;PMS1003;14672;50.250;8.312;2023-02-15T01:18:19;40.50;34.50;15.00
27143;PMS1003;14672;50.250;8.312;2023-02-15T01:20:46;29.50;27.50;14.50
27143;PMS1003;14672;50.250;8.312;2023-02-15T01:23:12;38.00;31.50;15.00
27143;PMS1003;14672;50.250;8.312;2023-02-15T01:25:38;29.50;28.50;15.00
27143;PMS1003;14672;50.250;8.312;2023-02-15T01:28:04;35.33;30.67;18.67
27143;PMS1003;14672;50.250;8.312;2023-02-15T01:30:30;34.00;32.00;16.00
27143;PMS1003;14672;50.250;8.312;2023-02-15T01:32:57;38.00;33.00;13.50
27143;PMS1003;14672;50.250;8.312;2023-02-15T01:35:23;29.50;28.00;14.50
27143;PMS1003;14672;50.250;8.312;2023-02-15T01:37:49;34.50;29.00;13.50
27143;PMS1003;14672;50.250;8.312;2023-02-15T01:40:16;35.33;33.33;16.00
27143;PMS1003;14672;50.250;8.312;2023-02-15T01:42:42;35.50;33.50;16.50
27143;PMS1003;14672;50.250;8.312;2023-02-15T01:50:46;36.00;36.00;16.50
27143;PMS1003;14672;50.250;8.312;2023-02-15T01:55:48;38.00;30.67;16.00
27143;PMS1003;14672;50.250;8.312;2023-02-15T01:58:20;42.50;40.00;20.00
27143;PMS1003;14672;50.250;8.312;2023-02-15T02:00:48;35.00;33.50;16.00
27143;PMS1003;14672;50.250;8.312;2023-02-15T02:03:14;37.00;33.00;18.00
27143;PMS1003;14672;50.250;8.312;2023-02-15T02:05:40;36.00;31.50;16.50
27143;PMS1003;14672;50.250;8.312;2023-02-15T02:08:06;36.00;30.00;13.50
27143;PMS1003;14672;50.250;8.312;2023-02-15T02:10:34;29.50;27.50;14.00
27143;PMS1003;14672;50.250;8.312;2023-02-15T02:13:02;38.00;34.50;17.00
27143;PMS1003;14672;50.250;8.312;2023-02-15T02:27:18;45.00;37.50;18.50
27143;PMS1003;14672;50.250;8.312;2023-02-15T02:41:32;47.50;36.50;16.00
27143;PMS1003;14672;50.250;8.312;2023-02-15T02:44:17;44.50;37.00;18.00
27143;PMS1003;14672;50.250;8.312;2023-02-15T02:49:34;45.00;37.50;17.50
27143;PMS1003;14672;50.250;8.312;2023-02-15T02:52:06;45.50;42.50;19.00
27143;PMS1003;14672;50.250;8.312;2023-02-15T02:58:11;58.00;46.00;20.00
27143;PMS1003;14672;50.250;8.312;2023-02-15T03:01:13;39.00;37.00;18.00
27143;PMS1003;14672;50.250;8.312;2023-02-15T03:03:51;44.50;38.00;20.00
27143;PMS1003;14672;50.250;8.312;2023-02-15T03:09:16;46.50;38.50;19.50
27143;PMS1003;14672;50.250;8.312;2023-02-15T03:12:07;54.50;48.50;19.00
27143;PMS1003;14672;50.250;8.312;2023-02-15T03:14:40;36.50;33.50;16.00
27143;PMS1003;14672;50.250;8.312;2023-02-15T03:17:09;53.20;45.20;21.20
27143;PMS1003;14672;50.250;8.312;2023-02-15T03:19:38;47.00;38.50;16.00
27143;PMS1003;14672;50.250;8.312;2023-02-15T03:22:10;45.00;41.00;18.50
27143;PMS1003;14672;50.250;8.312;2023-02-15T03:24:51;43.50;34.50;16.00
27143;PMS1003;14672;50.250;8.312;2023-02-15T03:27:45;40.50;35.00;14.00
27143;PMS1003;14672;50.250;8.312;2023-02-15T03:30:16;41.50;35.00;17.50
27143;PMS1003;14672;50.250;8.312;2023-02-15T03:32:47;42.50;37.00;16.00
27143;PMS1003;14672;50.250;8.312;2023-02-15T03:35:14;54.00;36.00;19.50
27143;PMS1003;14672;50.250;8.312;2023-02-15T03:37:48;41.00;35.50;17.50
27143;PMS1003;14672;50.250;8.312;2023-02-15T03:40:34;44.00;38.00;18.00
27143;PMS1003;14672;50.250;8.312;2023-02-15T03:43:28;46.00;36.00;18.00
27143;PMS1003;14672;50.250;8.312;2023-02-15T03:46:12;42.50;34.50;15.00
27143;PMS1003;14672;50.250;8.312;2023-02-15T03:49:10;48.50;34.50;17.50
27143;PMS1003;14672;50.250;8.312;2023-02-15T03:51:54;38.00;35.50;16.00
27143;PMS1003;14672;50.250;8.312;2023-02-15T03:54:27;38.50;35.50;17.50
27143;PMS1003;14672;50.250;8.312;2023-02-15T03:57:27;38.00;35.50;17.00
27143;PMS1003;14672;50.250;8.312;2023-02-15T04:03:08;40.00;34.50;16.50
27143;PMS1003;14672;50.250;8.312;2023-02-15T04:05:42;48.50;40.50;16.00
27143;PMS1003;14672;50.250;8.312;2023-02-15T04:08:09;48.00;40.50;18.00
27143;PMS1003;14672;50.250;8.312;2023-02-15T04:10:36;53.50;43.00;18.50
27143;PMS1003;14672;50.250;8.312;2023-02-15T04:13:18;46.00;40.50;18.00
27143;PMS1003;14672;50.250;8.312;2023-02-15T04:15:45;46.00;42.00;18.00
27143;PMS1003;14672;50.250;8.312;2023-02-15T04:18:30;47.50;41.00;19.00
27143;PMS1003;14672;50.250;8.312;2023-02-15T04:21:17;41.00;38.00;17.00
27143;PMS1003;14672;50.250;8.312;2023-02-15T04:24:03;33.00;28.50;15.00
27143;PMS1003;14672;50.250;8.312;2023-02-15T04:26:48;37.50;35.00;18.00
27143;PMS1003;14672;50.250;8.312;2023-02-15T04:29:18;38.50;36.00;18.50
27143;PMS1003;14672;50.250;8.312;2023-02-15T04:31:45;47.00;37.50;18.00
27143;PMS1003;14672;50.250;8.312;2023-02-15T04:34:11;46.00;40.50;19.00
27143;PMS1003;14672;50.250;8.312;2023-02-15T04:36:38;37.50;34.50;18.00
27143;PMS1003;14672;50.250;8.312;2023-02-15T04:39:05;41.50;39.50;18.50
27143;PMS1003;14672;50.250;8.312;2023-02-15T04:41:31;39.50;36.50;17.00
27143;PMS1003;14672;50.250;8.312;2023-02-15T04:43:58;54.50;47.00;18.00
27143;PMS1003;14672;50.250;8.312;2023-02-15T04:46:25;44.50;38.00;18.00
27143;PMS1003;14672;50.250;8.312;2023-02-15T04:48:52;51.00;42.00;16.50
27143;PMS1003;14672;50.250;8.312;2023-02-15T04:51:18;40.00;37.00;19.00
27143;PMS1003;14672;50.250;8.312;2023-02-15T04:53:44;42.00;40.00;18.50
27143;PMS1003;14672;50.250;8.312;2023-02-15T04:56:10;44.67;36.67;16.00
27143;PMS1003;14672;50.250;8.312;2023-02-15T04:58:36;47.33;40.67;18.67
27143;PMS1003;14672;50.250;8.312;2023-02-15T05:01:05;42.50;34.50;20.00
27143;PMS1003;14672;50.250;8.312;2023-02-15T05:03:33;56.00;40.50;19.50
27143;PMS1003;14672;50.250;8.312;2023-02-15T05:05:59;43.50;38.50;19.00
27143;PMS1003;14672;50.250;8.312;2023-02-15T05:08:25;38.00;35.33;15.33
27143;PMS1003;14672;50.250;8.312;2023-02-15T05:10:51;53.33;42.67;16.00
27143;PMS1003;14672;50.250;8.312;2023-02-15T05:13:16;46.67;38.00;20.00
27143;PMS1003;14672;50.250;8.312;2023-02-15T05:15:49;53.00;43.50;21.00
27143;PMS1003;14672;50.250;8.312;2023-02-15T05:18:17;47.00;40.00;19.50
27143;PMS1003;14672;50.250;8.312;2023-02-15T05:20:45;44.50;37.00;16.00
27143;PMS1003;14672;50.250;8.312;2023-02-15T05:23:11;45.60;40.40;21.60
27143;PMS1003;14672;50.250;8.312;2023-02-15T05:25:37;46.00;38.50;20.00
27143;PMS1003;14672;50.250;8.312;2023-02-15T05:28:22;42.50;35.50;17.00
27143;PMS1003;14672;50.250;8.312;2023-02-15T05:30:56;59.50;43.50;17.50
27143;PMS1003;14672;50.250;8.312;2023-02-15T05:33:31;56.00;38.00;14.50
27143;PMS1003;14672;50.250;8.312;2023-02-15T05:35:58;41.20;37.20;20.80
27143;PMS1003;14672;50.250;8.312;2023-02-15T05:38:24;48.00;41.50;18.00
27143;PMS1003;14672;50.250;8.312;2023-02-15T05:40:50;42.67;38.00;16.00
27143;PMS1003;14672;50.250;8.312;2023-02-15T05:43:17;45.50;40.00;21.00
27143;PMS1003;14672;50.250;8.312;2023-02-15T05:45:44;46.40;38.40;18.00
27143;PMS1003;14672;50.250;8.312;2023-02-15T05:48:11;42.50;39.50;18.50
27143;PMS1003;14672;50.250;8.312;2023-02-15T05:50:37;56.67;44.00;20.00
27143;PMS1003;14672;50.250;8.312;2023-02-15T05:53:03;46.67;40.67;21.33
27143;PMS1003;14672;50.250;8.312;2023-02-15T05:55:28;38.00;38.00;19.33
27143;PMS1003;14672;50.250;8.312;2023-02-15T05:57:54;65.00;45.00;18.00
27143;PMS1003;14672;50.250;8.312;2023-02-15T06:00:20;50.00;45.00;22.00
27143;PMS1003;14672;50.250;8.312;2023-02-15T06:02:46;59.50;41.50;18.00
27143;PMS1003;14672;50.250;8.312;2023-02-15T06:05:11;58.67;48.67;18.67
27143;PMS1003;14672;50.250;8.312;2023-02-15T06:07:37;51.33;47.33;24.00
27143;PMS1003;14672;50.250;8.312;2023-02-15T06:10:03;52.00;44.00;18.00
27143;PMS1003;14672;50.250;8.312;2023-02-15T06:12:30;45.00;43.00;20.00
27143;PMS1003;14672;50.250;8.312;2023-02-15T06:14:56;53.50;45.00;23.00
27143;PMS1003;14672;50.250;8.312;2023-02-15T06:17:21;54.50;48.50;23.00
27143;PMS1003;14672;50.250;8.312;2023-02-15T06:19:47;53.50;47.00;23.00
27143;PMS1003;14672;50.250;8.312;2023-02-15T06:22:13;46.67;46.00;24.00
27143;PMS1003;14672;50.250;8.312;2023-02-15T06:24:39;66.00;51.50;26.00
27143;PMS1003;14672;50.250;8.312;2023-02-15T06:27:07;58.00;41.50;20.50
27143;PMS1003;14672;50.250;8.312;2023-02-15T06:29:35;57.20;45.60;22.00
27143;PMS1003;14672;50.250;8.312;2023-02-15T06:32:01;59.20;47.20;20.00
27143;PMS1003;14672;50.250;8.312;2023-02-15T06:34:26;58.00;44.67;23.33
27143;PMS1003;14672;50.250;8.312;2023-02-15T06:36:52;46.67;39.33;18.67
27143;PMS1003;14672;50.250;8.312;2023-02-15T06:39:18;43.33;40.00;21.33
27143;PMS1003;14672;50.250;8.312;2023-02-15T06:41:44;52.67;42.00;18.00
27143;PMS1003;14672;50.250;8.312;2023-02-15T06:44:09;54.67;47.33;20.67
27143;PMS1003;14672;50.250;8.312;2023-02-15T06:46:35;54.67;45.33;22.00
27143;PMS1003;14672;50.250;8.312;2023-02-15T06:49:01;56.67;46.67;24.00
27143;PMS1003;14672;50.250;8.312;2023-02-15T06:51:27;54.00;47.50;24.00
27143;PMS1003;14672;50.250;8.312;2023-02-15T06:53:53;67.33;59.33;24.00
27143;PMS1003;14672;50.250;8.312;2023-02-15T06:56:18;62.50;52.00;25.00
27143;PMS1003;14672;50.250;8.312;2023-02-15T06:58:44;48.50;41.00;21.00
27143;PMS1003;14672;50.250;8.312;2023-02-15T07:01:11;52.50;46.00;20.50
27143;PMS1003;14672;50.250;8.312;2023-02-15T07:03:37;46.50;41.50;18.50
27143;PMS1003;14672;50.250;8.312;2023-02-15T07:06:04;41.33;38.67;20.00
27143;PMS1003;14672;50.250;8.312;2023-02-15T07:08:33;51.50;47.50;20.00
27143;PMS1003;14672;50.250;8.312;2023-02-15T07:11:00;64.00;43.00;20.00
27143;PMS1003;14672;50.250;8.312;2023-02-15T07:13:45;56.50;43.00;20.50
27143;PMS1003;14672;50.250;8.312;2023-02-15T07:16:12;45.00;42.00;21.50
27143;PMS1003;14672;50.250;8.312;2023-02-15T07:18:38;61.20;52.80;24.80
27143;PMS1003;14672;50.250;8.312;2023-02-15T07:21:05;42.50;37.00;19.50
27143;PMS1003;14672;50.250;8.312;2023-02-15T07:23:35;43.50;36.50;17.00
27143;PMS1003;14672;50.250;8.312;2023-02-15T07:26:03;53.50;43.00;20.00
27143;PMS1003;14672;50.250;8.312;2023-02-15T07:28:30;40.00;38.50;18.50
27143;PMS1003;14672;50.250;8.312;2023-02-15T07:30:56;41.00;36.00;19.50
27143;PMS1003;14672;50.250;8.312;2023-02-15T07:33:23;50.00;41.50;20.00
27143;PMS1003;14672;50.250;8.312;2023-02-15T07:35:53;42.50;39.50;21.50
27143;PMS1003;14672;50.250;8.312;2023-02-15T07:38:23;41.50;39.00;18.50
27143;PMS1003;14672;50.250;8.312;2023-02-15T07:40:59;37.00;34.50;15.00
27143;PMS1003;14672;50.250;8.312;2023-02-15T07:43:27;43.50;41.00;20.50
27143;PMS1003;14672;50.250;8.312;2023-02-15T07:45:54;45.50;42.00;16.50
27143;PMS1003;14672;50.250;8.312;2023-02-15T07:48:28;47.50;37.50;17.50
27143;PMS1003;14672;50.250;8.312;2023-02-15T07:50:54;52.00;44.00;19.33
27143;PMS1003;14672;50.250;8.312;2023-02-15T07:53:28;50.50;36.50;19.50
27143;PMS1003;14672;50.250;8.312;2023-02-15T07:56:02;58.50;52.50;20.50
27143;PMS1003;14672;50.250;8.312;2023-02-15T07:58:31;41.00;39.00;17.00
27143;PMS1003;14672;50.250;8.312;2023-02-15T08:01:16;39.50;34.00;16.00
27143;PMS1003;14672;50.250;8.312;2023-02-15T08:03:56;41.50;36.50;17.50
27143;PMS1003;14672;50.250;8.312;2023-02-15T08:06:24;40.00;34.50;15.00
27143;PMS1003;14672;50.250;8.312;2023-02-15T08:08:54;55.50;43.50;20.00
27143;PMS1003;14672;50.250;8.312;2023-02-15T08:11:24;40.67;36.00;16.67
27143;PMS1003;14672;50.250;8.312;2023-02-15T08:16:35;41.50;34.00;15.50
27143;PMS1003;14672;50.250;8.312;2023-02-15T08:19:20;65.00;44.00;19.00
27143;PMS1003;14672;50.250;8.312;2023-02-15T08:21:53;54.50;40.00;16.00
27143;PMS1003;14672;50.250;8.312;2023-02-15T08:24:26;44.50;37.50;20.00
27143;PMS1003;14672;50.250;8.312;2023-02-15T08:26:56;30.00;27.50;13.50
27143;PMS1003;14672;50.250;8.312;2023-02-15T08:29:24;36.50;35.50;14.00
27143;PMS1003;14672;50.250;8.312;2023-02-15T08:31:52;34.50;34.50;16.00
27143;PMS1003;14672;50.250;8.312;2023-02-15T08:34:23;44.00;35.00;15.00
27143;PMS1003;14672;50.250;8.312;2023-02-15T08:36:49;33.00;31.00;14.00
27143;PMS1003;14672;50.250;8.312;2023-02-15T08:39:16;36.00;30.50;16.50
27143;PMS1003;14672;50.250;8.312;2023-02-15T08:41:43;33.50;31.00;12.50
27143;PMS1003;14672;50.250;8.312;2023-02-15T08:44:11;39.00;34.00;17.00
27143;PMS1003;14672;50.250;8.312;2023-02-15T08:46:39;40.50;35.50;14.00
27143;PMS1003;14672;50.250;8.312;2023-02-15T08:49:07;33.00;29.00;14.50
27143;PMS1003;14672;50.250;8.312;2023-02-15T08:51:36;34.50;32.50;16.00
27143;PMS1003;14672;50.250;8.312;2023-02-15T08:54:04;38.50;33.00;16.00
27143;PMS1003;14672;50.250;8.312;2023-02-15T08:56:34;35.00;32.50;13.00
27143;PMS1003;14672;50.250;8.312;2023-02-15T08:59:06;35.50;33.00;16.00
27143;PMS1003;14672;50.250;8.312;2023-02-15T09:01:37;32.50;31.00;14.00
27143;PMS1003;14672;50.250;8.312;2023-02-15T09:04:04;36.00;30.00;14.00
27143;PMS1003;14672;50.250;8.312;2023-02-15T09:06:38;34.00;28.00;13.00
27143;PMS1003;14672;50.250;8.312;2023-02-15T09:09:06;29.00;27.00;13.00
27143;PMS1003;14672;50.250;8.312;2023-02-15T09:11:33;36.50;33.00;14.00
27143;PMS1003;14672;50.250;8.312;2023-02-15T09:14:07;38.00;32.00;15.50
27143;PMS1003;14672;50.250;8.312;2023-02-15T09:16:37;42.00;38.00;16.00
27143;PMS1003;14672;50.250;8.312;2023-02-15T09:19:04;34.50;30.50;14.50
27143;PMS1003;14672;50.250;8.312;2023-02-15T09:21:30;36.00;33.50;17.00
27143;PMS1003;14672;50.250;8.312;2023-02-15T09:23:58;27.50;26.50;13.00
27143;PMS1003;14672;50.250;8.312;2023-02-15T09:26:27;31.50;28.00;10.50
27143;PMS1003;14672;50.250;8.312;2023-02-15T09:28:56;33.50;29.00;12.00
27143;PMS1003;14672;50.250;8.312;2023-02-15T09:31:26;31.50;28.00;12.00
27143;PMS1003;14672;50.250;8.312;2023-02-15T09:33:55;27.00;25.50;11.00
27143;PMS1003;14672;50.250;8.312;2023-02-15T09:36:31;36.50;35.00;16.00
27143;PMS1003;14672;50.250;8.312;2023-02-15T09:41:55;38.00;30.50;13.50
27143;PMS1003;14672;50.250;8.312;2023-02-15T09:56:39;36.50;29.00;10.00
27143;PMS1003;14672;50.250;8.312;2023-02-15T10:19:54;36.00;30.50;12.00
27143;PMS1003;14672;50.250;8.312;2023-02-15T10:22:25;42.00;37.50;17.00
27143;PMS1003;14672;50.250;8.312;2023-02-15T10:25:28;37.00;33.00;13.00
27143;PMS1003;14672;50.250;8.312;2023-02-15T10:28:11;36.50;30.00;14.50
27143;PMS1003;14672;50.250;8.312;2023-02-15T10:30:50;35.50;31.00;15.50
27143;PMS1003;14672;50.250;8.312;2023-02-15T10:33:39;33.50;30.50;12.00
27143;PMS1003;14672;50.250;8.312;2023-02-15T10:44:35;35.00;29.50;10.00
27143;PMS1003;14672;50.250;8.312;2023-02-15T10:47:31;39.50;28.00;12.00
27143;PMS1003;14672;50.250;8.312;2023-02-15T10:55:54;27.00;26.00;13.50
27143;PMS1003;14672;50.250;8.312;2023-02-15T11:08:06;36.50;31.50;15.50
27143;PMS1003;14672;50.250;8.312;2023-02-15T11:10:36;28.50;26.00;12.50
27143;PMS1003;14672;50.250;8.312;2023-02-15T11:13:20;30.00;28.00;13.00
27143;PMS1003;14672;50.250;8.312;2023-02-15T11:16:00;33.50;31.00;15.50
27143;PMS1003;14672;50.250;8.312;2023-02-15T11:18:53;31.00;28.00;14.50
27143;PMS1003;14672;50.250;8.312;2023-02-15T11:21:27;38.00;30.50;14.50
27143;PMS1003;14672;50.250;8.312;2023-02-15T11:24:10;40.00;32.50;14.00
27143;PMS1003;14672;50.250;8.312;2023-02-15T11:26:54;38.00;33.00;13.50
27143;PMS1003;14672;50.250;8.312;2023-02-15T11:32:20;36.50;32.50;13.50
27143;PMS1003;14672;50.250;8.312;2023-02-15T11:38:40;39.00;33.50;16.00
27143;PMS1003;14672;50.250;8.312;2023-02-15T11:43:28;34.50;32.50;16.00
27143;PMS1003;14672;50.250;8.312;2023-02-15T11:46:02;30.00;28.50;15.50
27143;PMS1003;14672;50.250;8.312;2023-02-15T11:48:29;34.50;34.00;16.50
27143;PMS1003;14672;50.250;8.312;2023-02-15T11:50:57;33.50;30.00;14.50
27143;PMS1003;14672;50.250;8.312;2023-02-15T11:53:24;38.00;33.50;17.50
27143;PMS1003;14672;50.250;8.312;2023-02-15T11:55:58;45.50;42.00;20.50
27143;PMS1003;14672;50.250;8.312;2023-02-15T12:06:57;35.50;32.50;17.50
27143;PMS1003;14672;50.250;8.312;2023-02-15T12:12:36;44.50;37.00;18.00
27143;PMS1003;14672;50.250;8.312;2023-02-15T12:15:06;50.00;41.00;19.00
27143;PMS1003;14672;50.250;8.312;2023-02-15T12:17:46;35.50;33.00;17.50
27143;PMS1003;14672;50.250;8.312;2023-02-15T12:22:46;49.33;36.67;14.67
27143;PMS1003;14672;50.250;8.312;2023-02-15T12:25:25;40.00;36.00;20.00
27143;PMS1003;14672;50.250;8.312;2023-02-15T12:28:00;47.00;37.50;19.00
27143;PMS1003;14672;50.250;8.312;2023-02-15T12:38:43;51.00;41.50;21.00
27143;PMS1003;14672;50.250;8.312;2023-02-15T12:41:27;47.00;41.50;22.00
27143;PMS1003;14672;50.250;8.312;2023-02-15T12:50:04;44.50;39.50;16.50
27143;PMS1003;14672;50.250;8.312;2023-02-15T12:52:48;48.50;42.50;20.50
27143;PMS1003;14672;50.250;8.312;2023-02-15T12:58:04;51.00;44.00;21.00
27143;PMS1003;14672;50.250;8.312;2023-02-15T13:00:32;46.50;42.00;22.00
27143;PMS1003;14672;50.250;8.312;2023-02-15T13:02:59;49.00;45.50;23.00
27143;PMS1003;14672;50.250;8.312;2023-02-15T13:13:23;49.00;43.00;21.00
27143;PMS1003;14672;50.250;8.312;2023-02-15T13:16:00;46.50;41.00;22.00
27143;PMS1003;14672;50.250;8.312;2023-02-15T13:18:34;47.00;41.00;20.00
27143;PMS1003;14672;50.250;8.312;2023-02-15T13:23:42;47.50;41.50;21.50
27143;PMS1003;14672;50.250;8.312;2023-02-15T13:26:15;47.00;42.00;19.50
27143;PMS1003;14672;50.250;8.312;2023-02-15T13:28:47;46.00;42.00;20.00
27143;PMS1003;14672;50.250;8.312;2023-02-15T13:31:22;52.80;48.00;25.60
27143;PMS1003;14672;50.250;8.312;2023-02-15T13:33:56;55.50;44.50;22.00
27143;PMS1003;14672;50.250;8.312;2023-02-15T13:37:15;47.00;41.50;22.00
27143;PMS1003;14672;50.250;8.312;2023-02-15T13:51:06;68.50;53.50;21.50
27143;PMS1003;14672;50.250;8.312;2023-02-15T13:54:24;51.00;38.00;18.50
27143;PMS1003;14672;50.250;8.312;2023-02-15T14:03:10;51.00;46.50;18.50
27143;PMS1003;14672;50.250;8.312;2023-02-15T14:05:57;52.00;47.00;23.50
27143;PMS1003;14672;50.250;8.312;2023-02-15T14:14:22;54.50;46.50;24.00
27143;PMS1003;14672;50.250;8.312;2023-02-15T14:22:38;43.00;39.00;21.00
27143;PMS1003;14672;50.250;8.312;2023-02-15T14:28:04;50.00;45.50;25.00
27143;PMS1003;14672;50.250;8.312;2023-02-15T14:30:51;48.50;44.00;23.50
27143;PMS1003;14672;50.250;8.312;2023-02-15T14:36:05;54.40;44.80;20.80
27143;PMS1003;14672;50.250;8.312;2023-02-15T14:38:43;60.50;49.50;22.50
27143;PMS1003;14672;50.250;8.312;2023-02-15T14:41:53;54.00;44.50;19.00
27143;PMS1003;14672;50.250;8.312;2023-02-15T14:44:32;62.50;50.50;23.50
27143;PMS1003;14672;50.250;8.312;2023-02-15T14:47:11;50.50;45.50;23.50
27143;PMS1003;14672;50.250;8.312;2023-02-15T14:49:50;52.00;51.00;24.00
27143;PMS1003;14672;50.250;8.312;2023-02-15T14:52:16;52.67;42.67;20.67
27143;PMS1003;14672;50.250;8.312;2023-02-15T15:07:57;56.00;50.00;23.00
27143;PMS1003;14672;50.250;8.312;2023-02-15T15:12:54;57.33;48.00;28.00
27143;PMS1003;14672;50.250;8.312;2023-02-15T15:18:04;55.00;52.50;25.00
27143;PMS1003;14672;50.250;8.312;2023-02-15T15:20:45;57.00;49.50;21.50
27143;PMS1003;14672;50.250;8.312;2023-02-15T15:37:10;63.50;57.50;26.50
27143;PMS1003;14672;50.250;8.312;2023-02-15T15:45:56;53.20;46.00;23.60
27143;PMS1003;14672;50.250;8.312;2023-02-15T15:48:45;57.50;47.00;20.50
27143;PMS1003;14672;50.250;8.312;2023-02-15T15:53:47;63.50;45.00;24.00
27143;PMS1003;14672;50.250;8.312;2023-02-15T15:56:23;60.80;50.00;25.60
27143;PMS1003;14672;50.250;8.312;2023-02-15T15:59:00;56.50;48.50;27.50
27143;PMS1003;14672;50.250;8.312;2023-02-15T16:01:42;52.00;48.00;28.00
27143;PMS1003;14672;50.250;8.312;2023-02-15T16:04:13;64.80;58.40;29.60
27143;PMS1003;14672;50.250;8.312;2023-02-15T16:06:51;51.50;43.00;24.00
27143;PMS1003;14672;50.250;8.312;2023-02-15T16:09:18;64.80;58.00;28.00
27143;PMS1003;14672;50.250;8.312;2023-02-15T16:11:55;67.60;55.20;25.20
27143;PMS1003;14672;50.250;8.312;2023-02-15T16:14:32;65.00;58.00;30.00
27143;PMS1003;14672;50.250;8.312;2023-02-15T16:17:04;54.00;48.50;22.50
27143;PMS1003;14672;50.250;8.312;2023-02-15T16:19:34;54.00;47.60;23.60
27143;PMS1003;14672;50.250;8.312;2023-02-15T16:22:04;64.80;56.80;26.40
27143;PMS1003;14672;50.250;8.312;2023-02-15T16:27:49;65.20;58.00;26.40
27143;PMS1003;14672;50.250;8.312;2023-02-15T16:30:27;64.00;55.60;30.00
27143;PMS1003;14672;50.250;8.312;2023-02-15T16:35:54;62.00;53.60;26.00
27143;PMS1003;14672;50.250;8.312;2023-02-15T16:39:12;50.00;45.00;24.50
27143;PMS1003;14672;50.250;8.312;2023-02-15T16:41:30;53.60;50.40;26.00
27143;PMS1003;14672;50.250;8.312;2023-02-15T16:43:56;52.80;48.40;28.00
27143;PMS1003;14672;50.250;8.312;2023-02-15T16:46:47;61.20;51.20;24.40
27143;PMS1003;14672;50.250;8.312;2023-02-15T16:51:56;56.40;50.00;26.40
27143;PMS1003;14672;50.250;8.312;2023-02-15T16:54:31;61.60;50.80;26.00
27143;PMS1003;14672;50.250;8.312;2023-02-15T16:56:58;60.80;58.40;29.20
27143;PMS1003;14672;50.250;8.312;2023-02-15T16:59:32;58.40;48.00;24.40
27143;PMS1003;14672;50.250;8.312;2023-02-15T17:02:10;57.20;50.40;25.60
27143;PMS1003;14672;50.250;8.312;2023-02-15T17:04:41;56.00;52.00;28.00
27143;PMS1003;14672;50.250;8.312;2023-02-15T17:09:54;56.40;50.80;25.60
27143;PMS1003;14672;50.250;8.312;2023-02-15T17:18:10;60.00;51.60;28.00
27143;PMS1003;14672;50.250;8.312;2023-02-15T17:20:43;64.00;53.00;26.00
27143;PMS1003;14672;50.250;8.312;2023-02-15T17:23:31;58.80;54.00;31.20
27143;PMS1003;14672;50.250;8.312;2023-02-15T17:26:25;56.50;51.50;23.00
27143;PMS1003;14672;50.250;8.312;2023-02-15T17:28:57;56.00;47.60;23.20
27143;PMS1003;14672;50.250;8.312;2023-02-15T17:31:48;53.50;51.50;27.50
27143;PMS1003;14672;50.250;8.312;2023-02-15T17:37:24;55.00;46.00;24.50
27143;PMS1003;14672;50.250;8.312;2023-02-15T17:39:52;68.00;56.00;28.00
27143;PMS1003;14672;50.250;8.312;2023-02-15T17:42:18;60.00;52.00;27.60
27143;PMS1003;14672;50.250;8.312;2023-02-15T17:44:44;60.00;52.00;27.00
27143;PMS1003;14672;50.250;8.312;2023-02-15T17:47:14;59.50;51.50;26.50
27143;PMS1003;14672;50.250;8.312;2023-02-15T17:49:47;60.40;57.20;28.40
27143;PMS1003;14672;50.250;8.312;2023-02-15T17:52:17;57.20;53.20;27.20
27143;PMS1003;14672;50.250;8.312;2023-02-15T17:54:43;67.00;55.00;30.00
27143;PMS1003;14672;50.250;8.312;2023-02-15T17:57:28;65.60;53.60;27.60
27143;PMS1003;14672;50.250;8.312;2023-02-15T17:59:55;54.00;48.00;23.00
27143;PMS1003;14672;50.250;8.312;2023-02-15T18:02:40;57.60;54.40;30.00
27143;PMS1003;14672;50.250;8.312;2023-02-15T18:05:25;62.00;58.00;29.60
27143;PMS1003;14672;50.250;8.312;2023-02-15T18:08:14;64.80;55.60;29.20
27143;PMS1003;14672;50.250;8.312;2023-02-15T18:11:01;58.80;51.20;26.80
27143;PMS1003;14672;50.250;8.312;2023-02-15T18:13:46;63.20;59.60;31.20
27143;PMS1003;14672;50.250;8.312;2023-02-15T18:16:13;67.20;53.20;27.60
27143;PMS1003;14672;50.250;8.312;2023-02-15T18:18:44;74.80;63.20;32.00
27143;PMS1003;14672;50.250;8.312;2023-02-15T18:21:10;63.00;58.50;27.50
27143;PMS1003;14672;50.250;8.312;2023-02-15T18:23:37;61.20;56.80;27.60
27143;PMS1003;14672;50.250;8.312;2023-02-15T18:26:04;64.80;53.60;28.00
27143;PMS1003;14672;50.250;8.312;2023-02-15T18:28:31;68.00;57.20;27.20
27143;PMS1003;14672;50.250;8.312;2023-02-15T18:30:57;54.40;48.80;26.80